Time;durP1;ratioP1;P1;durP2;ratioP2;P2;SDS_P1;SDS_P2;PMS_P1;PMS_P2;Temp;Humidity;BMP_temperature;BMP_pressure;BME280_temperature;BME280_humidity;BME280_pressure;Samples;Min_cycle;Max_cycle;Signal;HPM_P1;HPM_P2
2023/08/25 00:02:22;;;;;;;0.20;0.20;;;19.80;99.90;;;;;;5043398;28;20039;-76
2023/08/25 00:04:48;;;;;;;0.10;0.10;;;19.80;99.90;;;;;;5061928;28;20518;-76
2023/08/25 00:07:17;;;;;;;1.77;1.65;;;20.30;99.90;;;;;;5062628;28;20646;-78
2023/08/25 00:09:47;;;;;;;0.20;0.20;;;19.60;99.90;;;;;;5062923;28;20017;-76
2023/08/25 00:12:14;;;;;;;0.35;0.35;;;19.20;99.90;;;;;;5062114;28;20029;-76
2023/08/25 00:14:40;;;;;;;0.00;0.00;;;19.70;99.90;;;;;;5061380;28;20036;-80
2023/08/25 00:17:08;;;;;;;0.10;0.10;;;19.20;99.90;;;;;;5061383;28;20494;-76
2023/08/25 00:19:34;;;;;;;0.10;0.10;;;19.10;99.90;;;;;;5062219;28;20028;-76
2023/08/25 00:22:02;;;;;;;0.05;0.05;;;19.80;99.90;;;;;;5061583;28;20021;-76
2023/08/25 00:24:29;;;;;;;0.77;0.77;;;19.60;99.90;;;;;;5061186;28;20127;-76
2023/08/25 00:26:56;;;;;;;0.20;0.20;;;19.10;99.90;;;;;;5061241;28;20486;-77
2023/08/25 00:29:23;;;;;;;1.85;1.20;;;19.10;99.90;;;;;;5060779;28;20107;-78
2023/08/25 00:31:51;;;;;;;1.35;1.25;;;19.40;99.90;;;;;;5061403;28;20060;-76
2023/08/25 00:34:17;;;;;;;0.30;0.30;;;19.10;99.90;;;;;;5061334;28;20115;-77
2023/08/25 00:36:43;;;;;;;0.00;0.00;;;19.20;99.90;;;;;;5060391;28;20584;-79
2023/08/25 00:39:10;;;;;;;0.90;0.90;;;19.40;99.90;;;;;;5061917;28;20039;-77
2023/08/25 00:41:37;;;;;;;1.95;1.85;;;19.10;99.90;;;;;;5043142;28;20055;-77
2023/08/25 00:44:03;;;;;;;2.25;1.75;;;19.30;99.90;;;;;;5061560;28;20020;-81
2023/08/25 00:46:30;;;;;;;0.10;0.10;;;19.20;99.90;;;;;;5060960;28;20016;-77
2023/08/25 00:48:57;;;;;;;0.05;0.05;;;19.70;99.90;;;;;;5043600;28;20025;-78
2023/08/25 00:51:27;;;;;;;0.10;0.10;;;19.50;99.90;;;;;;5043787;28;20017;-77
2023/08/25 00:53:54;;;;;;;0.13;0.13;;;19.60;99.90;;;;;;5044388;28;20025;-77
2023/08/25 00:56:21;;;;;;;0.10;0.10;;;19.10;99.90;;;;;;5061176;28;20055;-77
2023/08/25 00:58:51;;;;;;;0.35;0.35;;;19.20;99.90;;;;;;5061541;28;20331;-77
2023/08/25 01:01:17;;;;;;;1.42;1.33;;;19.00;99.90;;;;;;5043763;28;20020;-77
2023/08/25 01:03:48;;;;;;;0.10;0.10;;;19.00;99.90;;;;;;5043098;28;20043;-77
2023/08/25 01:06:18;;;;;;;1.15;1.08;;;19.20;99.90;;;;;;5042477;28;20218;-77
2023/08/25 01:08:48;;;;;;;0.10;0.10;;;22.50;99.90;;;;;;5042600;28;20202;-76
2023/08/25 01:12:08;;;;;;;1.30;1.20;;;19.40;99.90;;;;;;5061438;28;20552;-77
2023/08/25 01:15:04;;;;;;;0.00;0.00;;;19.50;99.90;;;;;;4983190;28;20283;-77
2023/08/25 01:17:50;;;;;;;0.38;0.38;;;19.40;99.90;;;;;;4982861;28;20035;-78
2023/08/25 01:20:19;;;;;;;0.68;0.68;;;19.30;99.90;;;;;;4966278;28;20823;-77
2023/08/25 01:22:52;;;;;;;0.00;0.00;;;19.40;99.90;;;;;;4966452;28;20022;-77
2023/08/25 01:25:29;;;;;;;0.05;0.05;;;19.10;99.90;;;;;;4982386;28;20034;-78
2023/08/25 01:27:57;;;;;;;0.10;0.10;;;21.00;99.90;;;;;;4966222;28;20463;-77
2023/08/25 01:30:24;;;;;;;0.10;0.10;;;19.40;99.90;;;;;;4982825;28;20038;-77
2023/08/25 01:32:54;;;;;;;1.20;1.20;;;19.40;99.90;;;;;;4983016;28;20073;-76
2023/08/25 01:35:56;;;;;;;0.00;0.00;;;19.40;99.90;;;;;;4966404;28;20023;-76
2023/08/25 01:38:43;;;;;;;0.10;0.10;;;19.80;99.90;;;;;;4944091;28;20095;-76
2023/08/25 01:41:24;;;;;;;14.48;13.55;;;20.30;99.90;;;;;;4944119;28;20043;-76
2023/08/25 01:43:53;;;;;;;0.30;0.30;;;20.70;99.90;;;;;;4943216;28;20024;-78
2023/08/25 01:46:22;;;;;;;0.28;0.28;;;20.70;99.90;;;;;;4962791;28;20049;-76
2023/08/25 01:48:51;;;;;;;0.10;0.10;;;21.00;99.90;;;;;;4982446;28;20045;-76
2023/08/25 01:51:18;;;;;;;0.30;0.30;;;21.40;99.90;;;;;;4982167;28;20029;-77
2023/08/25 01:53:51;;;;;;;2.45;0.80;;;21.20;99.90;;;;;;4981826;28;20041;-76
2023/08/25 01:56:17;;;;;;;0.17;0.17;;;22.40;99.90;;;;;;4981529;28;20045;-77
2023/08/25 01:58:44;;;;;;;0.20;0.20;;;20.50;99.90;;;;;;4981895;28;20135;-79
2023/08/25 02:01:10;;;;;;;0.35;0.35;;;20.40;99.90;;;;;;4964948;28;20038;-79
2023/08/25 02:03:36;;;;;;;0.52;0.52;;;20.30;99.90;;;;;;4963951;28;20041;-77
2023/08/25 02:06:03;;;;;;;2.08;1.13;;;17.60;99.90;;;;;;4965331;28;20110;-77
2023/08/25 02:08:30;;;;;;;0.10;0.10;;;20.70;99.90;;;;;;4981999;28;20074;-76
2023/08/25 02:10:56;;;;;;;0.10;0.10;;;;;;;;;;4982192;28;20086;-77
2023/08/25 02:13:22;;;;;;;0.28;0.28;;;20.60;99.90;;;;;;4982103;28;20732;-77
2023/08/25 02:15:51;;;;;;;0.30;0.30;;;19.80;99.90;;;;;;5044620;28;20557;-78
2023/08/25 02:18:17;;;;;;;0.32;0.32;;;19.40;99.90;;;;;;5045295;28;20029;-77
2023/08/25 02:20:44;;;;;;;0.10;0.10;;;18.70;99.90;;;;;;5063292;28;20032;-77
2023/08/25 02:23:11;;;;;;;13.45;5.93;;;18.60;99.90;;;;;;5043974;28;20032;-77
2023/08/25 02:25:37;;;;;;;0.52;0.47;;;18.90;99.90;;;;;;5045307;28;20316;-77
2023/08/25 02:28:04;;;;;;;0.10;0.10;;;18.70;99.90;;;;;;5062596;28;20560;-76
2023/08/25 02:30:30;;;;;;;0.05;0.05;;;18.40;99.90;;;;;;5045433;28;20036;-76
2023/08/25 02:32:56;;;;;;;0.10;0.10;;;18.30;99.90;;;;;;5063573;28;20020;-77
2023/08/25 02:35:23;;;;;;;0.00;0.00;;;18.20;99.90;;;;;;5063150;28;20028;-78
2023/08/25 02:38:00;;;;;;;0.20;0.20;;;18.20;99.90;;;;;;5062532;28;20116;-77
2023/08/25 02:40:28;;;;;;;0.10;0.10;;;18.30;99.90;;;;;;5045009;28;20645;-77
2023/08/25 02:43:04;;;;;;;3.22;3.13;;;18.70;99.90;;;;;;5062255;28;20530;-76
2023/08/25 02:45:32;;;;;;;0.00;0.00;;;19.40;99.90;;;;;;5045759;28;20044;-77
2023/08/25 02:47:58;;;;;;;0.00;0.00;;;19.30;99.90;;;;;;5063591;28;20048;-77
2023/08/25 02:50:25;;;;;;;0.10;0.10;;;19.70;99.90;;;;;;5062530;28;20494;-77
2023/08/25 02:52:52;;;;;;;0.10;0.10;;;20.10;99.90;;;;;;5062153;28;20688;-77
2023/08/25 02:55:20;;;;;;;0.00;0.00;;;20.50;99.90;;;;;;5044072;28;20025;-78
2023/08/25 02:57:47;;;;;;;0.00;0.00;;;20.80;99.90;;;;;;5062112;28;20258;-76
2023/08/25 03:00:21;;;;;;;0.00;0.00;;;20.70;99.90;;;;;;5045021;28;20025;-77
2023/08/25 03:02:48;;;;;;;0.20;0.20;;;17.30;99.90;;;;;;5043433;28;20063;-78
2023/08/25 03:05:15;;;;;;;0.57;0.57;;;21.10;99.90;;;;;;5044016;28;20032;-77
2023/08/25 03:07:41;;;;;;;0.00;0.00;;;21.10;99.90;;;;;;5062399;28;20024;-76
2023/08/25 03:10:10;;;;;;;1.48;1.17;;;21.40;99.90;;;;;;5063134;28;20626;-76
2023/08/25 03:12:36;;;;;;;0.00;0.00;;;;;;;;;;5063236;28;20413;-78
2023/08/25 03:15:03;;;;;;;0.10;0.10;;;20.60;99.90;;;;;;5044941;28;20016;-78
2023/08/25 03:17:30;;;;;;;0.10;0.10;;;;;;;;;;5062015;28;20544;-78
2023/08/25 03:19:56;;;;;;;0.10;0.10;;;20.40;99.90;;;;;;5062223;28;20017;-76
2023/08/25 03:22:23;;;;;;;0.20;0.20;;;20.50;99.90;;;;;;5043542;28;20017;-77
2023/08/25 03:24:49;;;;;;;1.65;1.55;;;20.40;99.90;;;;;;5061655;28;20257;-77
2023/08/25 03:27:15;;;;;;;0.10;0.10;;;;;;;;;;5061369;28;20715;-77
2023/08/25 03:29:48;;;;;;;0.52;0.52;;;19.50;99.90;;;;;;5043985;28;20031;-77
2023/08/25 03:32:15;;;;;;;0.20;0.20;;;19.20;99.90;;;;;;5044182;28;20020;-77
2023/08/25 03:34:41;;;;;;;0.20;0.20;;;19.40;99.90;;;;;;5062286;28;20027;-76
2023/08/25 03:37:07;;;;;;;0.00;0.00;;;19.10;99.90;;;;;;5062042;28;20056;-78
2023/08/25 03:39:34;;;;;;;0.00;0.00;;;18.90;99.90;;;;;;5043294;28;20640;-77
2023/08/25 03:42:00;;;;;;;1.08;0.82;;;19.60;99.90;;;;;;5043756;28;20051;-80
2023/08/25 03:44:27;;;;;;;3.40;3.25;;;21.10;99.90;;;;;;5043187;28;20510;-77
2023/08/25 03:46:54;;;;;;;0.00;0.00;;;19.40;99.90;;;;;;5061364;28;20506;-76
2023/08/25 03:49:20;;;;;;;0.10;0.10;;;19.50;99.90;;;;;;5061677;28;20035;-76
2023/08/25 03:51:47;;;;;;;0.00;0.00;;;19.20;99.90;;;;;;5043571;28;20660;-76
2023/08/25 03:54:13;;;;;;;0.00;0.00;;;18.90;99.90;;;;;;5062082;28;20238;-76
2023/08/25 03:56:39;;;;;;;0.00;0.00;;;19.00;99.90;;;;;;5061406;28;20305;-78
2023/08/25 03:59:06;;;;;;;0.10;0.10;;;19.30;99.90;;;;;;5061955;28;20020;-76
2023/08/25 04:01:33;;;;;;;0.08;0.08;;;17.50;99.90;;;;;;5061279;28;20020;-75
2023/08/25 04:04:01;;;;;;;0.10;0.10;;;19.50;99.90;;;;;;5061671;28;20036;-77
2023/08/25 04:06:27;;;;;;;1.17;0.85;;;19.50;99.90;;;;;;5043124;28;20518;-77
2023/08/25 04:08:53;;;;;;;0.00;0.00;;;19.40;99.90;;;;;;5061810;28;20024;-76
2023/08/25 04:11:19;;;;;;;0.10;0.10;;;19.10;99.90;;;;;;5043644;28;20020;-77
2023/08/25 04:13:48;;;;;;;0.10;0.10;;;19.00;99.90;;;;;;5061547;28;20024;-76
2023/08/25 04:16:15;;;;;;;0.00;0.00;;;18.90;99.90;;;;;;5042353;28;20024;-76
2023/08/25 04:18:41;;;;;;;0.13;0.13;;;18.90;99.90;;;;;;5060462;28;20035;-77
2023/08/25 04:21:08;;;;;;;0.20;0.20;;;18.70;99.90;;;;;;5060816;28;20024;-78
2023/08/25 04:23:35;;;;;;;0.20;0.20;;;18.80;99.90;;;;;;5060416;28;20111;-79
2023/08/25 04:26:01;;;;;;;0.10;0.10;;;18.70;99.90;;;;;;5060229;28;20622;-79
2023/08/25 04:28:28;;;;;;;0.30;0.30;;;18.80;99.90;;;;;;5060572;28;20050;-76
2023/08/25 04:30:54;;;;;;;2.65;2.45;;;17.80;99.90;;;;;;5060950;28;20032;-76
2023/08/25 04:33:21;;;;;;;0.95;0.95;;;19.20;99.90;;;;;;5060996;28;20454;-78
2023/08/25 04:35:47;;;;;;;0.00;0.00;;;19.20;99.90;;;;;;5060708;28;20024;-76
2023/08/25 04:38:13;;;;;;;2.63;1.70;;;;;;;;;;5042918;28;20584;-78
2023/08/25 04:40:40;;;;;;;0.00;0.00;;;19.10;99.90;;;;;;5042853;28;20116;-77
2023/08/25 04:43:06;;;;;;;0.10;0.10;;;19.60;99.90;;;;;;5042841;28;20578;-76
2023/08/25 04:45:33;;;;;;;0.10;0.10;;;19.80;99.90;;;;;;5060011;28;20088;-78
2023/08/25 04:47:59;;;;;;;0.03;0.03;;;17.70;99.90;;;;;;5060302;28;20039;-78
2023/08/25 04:50:25;;;;;;;0.15;0.15;;;19.70;99.90;;;;;;5060741;28;20023;-77
2023/08/25 04:52:51;;;;;;;0.10;0.10;;;19.90;99.90;;;;;;5060738;28;20027;-78
2023/08/25 04:55:19;;;;;;;0.00;0.00;;;19.90;99.90;;;;;;5060709;28;20217;-78
2023/08/25 04:57:45;;;;;;;1.75;1.65;;;20.30;99.90;;;;;;5042111;28;20166;-76
2023/08/25 05:00:12;;;;;;;1.17;1.10;;;20.00;99.90;;;;;;5060202;28;20108;-78
2023/08/25 05:02:39;;;;;;;0.10;0.10;;;20.30;99.90;;;;;;5042870;28;20082;-78
2023/08/25 05:05:07;;;;;;;0.25;0.25;;;20.20;99.90;;;;;;5042398;28;20017;-76
2023/08/25 05:07:33;;;;;;;0.40;0.40;;;20.00;99.90;;;;;;5042361;28;20024;-75
2023/08/25 05:10:00;;;;;;;0.88;0.85;;;19.60;99.90;;;;;;5059926;28;20021;-77
2023/08/25 05:12:27;;;;;;;0.30;0.30;;;19.50;99.90;;;;;;5042633;28;20025;-78
2023/08/25 05:14:53;;;;;;;0.00;0.00;;;19.30;99.90;;;;;;5059851;28;20270;-75
2023/08/25 05:17:19;;;;;;;0.10;0.10;;;19.80;99.90;;;;;;5041836;28;20029;-78
2023/08/25 05:19:46;;;;;;;0.10;0.10;;;19.30;99.90;;;;;;5042023;28;20047;-75
2023/08/25 05:22:12;;;;;;;1.70;1.63;;;18.00;99.90;;;;;;5060373;28;20013;-75
2023/08/25 05:24:39;;;;;;;1.58;1.48;;;19.40;99.90;;;;;;5060572;28;20016;-76
2023/08/25 05:27:08;;;;;;;0.20;0.20;;;19.50;99.90;;;;;;5060468;28;20029;-75
2023/08/25 05:29:35;;;;;;;0.05;0.05;;;20.00;99.90;;;;;;5042889;28;20482;-78
2023/08/25 05:32:03;;;;;;;0.85;0.85;;;20.20;99.90;;;;;;5042337;28;20541;-78
2023/08/25 05:34:31;;;;;;;1.27;1.10;;;20.30;99.90;;;;;;5041299;28;20494;-78
2023/08/25 05:36:57;;;;;;;0.88;0.88;;;20.50;99.90;;;;;;5042226;28;20036;-79
2023/08/25 05:39:25;;;;;;;0.57;0.57;;;21.50;99.90;;;;;;5041330;28;20566;-78
2023/08/25 05:41:51;;;;;;;0.40;0.40;;;21.00;99.90;;;;;;5041539;28;20087;-77
2023/08/25 05:44:18;;;;;;;0.22;0.22;;;21.20;99.90;;;;;;5060030;28;20057;-76
2023/08/25 05:46:45;;;;;;;0.10;0.10;;;21.20;99.90;;;;;;5042077;28;20510;-77
2023/08/25 05:49:11;;;;;;;1.88;1.55;;;21.00;99.90;;;;;;5041437;28;20024;-82
2023/08/25 05:51:37;;;;;;;0.10;0.10;;;21.10;99.90;;;;;;5059067;28;20031;-76
2023/08/25 05:54:03;;;;;;;1.30;1.20;;;21.30;99.90;;;;;;5059414;28;20090;-78
2023/08/25 05:56:30;;;;;;;1.17;0.85;;;21.40;99.90;;;;;;5059124;28;20020;-76
2023/08/25 05:58:59;;;;;;;0.25;0.25;;;21.50;99.90;;;;;;5042450;28;20647;-77
2023/08/25 06:01:26;;;;;;;0.63;0.50;;;21.80;99.90;;;;;;5044325;28;20024;-76
2023/08/25 06:03:52;;;;;;;0.90;0.90;;;21.90;99.90;;;;;;5045248;28;20035;-76
2023/08/25 06:06:19;;;;;;;0.35;0.35;;;21.80;99.90;;;;;;5063137;28;20021;-76
2023/08/25 06:08:45;;;;;;;0.85;0.85;;;21.80;99.90;;;;;;5045364;28;20678;-79
2023/08/25 06:11:13;;;;;;;0.10;0.10;;;22.00;99.90;;;;;;5063127;28;20056;-78
2023/08/25 06:13:39;;;;;;;0.32;0.32;;;22.00;99.90;;;;;;5063034;28;20670;-76
2023/08/25 06:16:06;;;;;;;0.10;0.10;;;22.30;99.90;;;;;;5062388;28;20236;-77
2023/08/25 06:18:32;;;;;;;0.25;0.25;;;22.20;99.90;;;;;;5063358;28;20039;-77
2023/08/25 06:20:59;;;;;;;0.63;0.63;;;19.40;99.90;;;;;;5062551;28;20020;-77
2023/08/25 06:23:25;;;;;;;0.40;0.40;;;22.30;99.90;;;;;;5062879;28;20042;-76
2023/08/25 06:25:52;;;;;;;0.35;0.35;;;22.30;99.90;;;;;;5044399;28;20028;-77
2023/08/25 06:28:18;;;;;;;0.13;0.13;;;22.00;99.90;;;;;;5062556;28;20074;-78
2023/08/25 06:30:48;;;;;;;0.32;0.32;;;22.00;99.90;;;;;;5062876;28;20020;-77
2023/08/25 06:33:14;;;;;;;2.75;2.55;;;22.10;99.90;;;;;;5045300;28;20112;-77
2023/08/25 06:35:41;;;;;;;2.80;2.30;;;22.20;99.90;;;;;;5063576;28;20104;-76
2023/08/25 06:38:08;;;;;;;0.10;0.10;;;22.20;99.90;;;;;;5062878;28;20032;-77
2023/08/25 06:40:34;;;;;;;1.40;1.30;;;21.80;99.90;;;;;;5045260;28;20059;-78
2023/08/25 06:43:02;;;;;;;0.10;0.10;;;22.10;99.90;;;;;;5063430;28;20040;-77
2023/08/25 06:45:30;;;;;;;1.02;0.98;;;22.20;99.90;;;;;;5045431;28;20017;-76
2023/08/25 06:48:02;;;;;;;0.08;0.08;;;22.30;99.90;;;;;;5062916;28;20422;-77
2023/08/25 06:50:29;;;;;;;0.07;0.07;;;22.80;99.90;;;;;;5063122;28;20107;-77
2023/08/25 06:52:55;;;;;;;0.70;0.70;;;22.50;99.90;;;;;;5045419;28;20279;-76
2023/08/25 06:55:24;;;;;;;0.68;0.68;;;22.80;99.90;;;;;;5063240;28;20078;-75
2023/08/25 06:57:50;;;;;;;0.00;0.00;;;23.10;99.90;;;;;;5044779;28;20040;-76
2023/08/25 07:00:20;;;;;;;1.90;1.10;;;22.70;99.90;;;;;;5062635;28;20029;-76
2023/08/25 07:03:03;;;;;;;0.85;0.85;;;22.60;99.90;;;;;;5061140;28;20020;-78
2023/08/25 07:05:29;;;;;;;0.88;0.82;;;22.60;99.90;;;;;;5043807;28;20037;-75
2023/08/25 07:07:56;;;;;;;0.47;0.47;;;22.70;99.90;;;;;;5061665;28;20229;-75
2023/08/25 07:10:23;;;;;;;0.10;0.10;;;22.70;99.90;;;;;;5061245;28;20021;-76
2023/08/25 07:12:48;;;;;;;0.10;0.10;;;22.60;99.90;;;;;;5059137;28;20662;-79
2023/08/25 07:15:17;;;;;;;0.10;0.10;;;22.80;99.90;;;;;;5061774;28;20557;-75
2023/08/25 07:17:43;;;;;;;0.00;0.00;;;21.70;99.90;;;;;;5061910;28;20032;-76
2023/08/25 07:20:10;;;;;;;0.10;0.10;;;23.00;99.90;;;;;;5043114;28;20281;-77
2023/08/25 07:22:36;;;;;;;2.00;0.82;;;23.10;99.90;;;;;;5061549;28;20082;-77
2023/08/25 07:25:03;;;;;;;1.20;1.20;;;23.30;99.90;;;;;;5062114;28;20020;-78
2023/08/25 07:27:29;;;;;;;0.40;0.40;;;23.30;99.90;;;;;;5043215;28;20043;-77
2023/08/25 07:29:55;;;;;;;0.10;0.10;;;23.30;99.90;;;;;;5061736;28;20123;-77
2023/08/25 07:32:22;;;;;;;0.05;0.05;;;23.10;99.90;;;;;;5043240;28;20098;-76
2023/08/25 07:34:51;;;;;;;0.32;0.32;;;23.20;99.90;;;;;;5061367;28;20027;-78
2023/08/25 07:37:17;;;;;;;0.43;0.43;;;23.40;99.90;;;;;;5060345;28;20033;-77
2023/08/25 07:39:54;;;;;;;0.00;0.00;;;23.50;99.90;;;;;;5061454;28;20650;-78
2023/08/25 07:42:23;;;;;;;0.20;0.20;;;23.30;99.90;;;;;;5060614;28;20067;-81
2023/08/25 07:44:49;;;;;;;3.53;3.20;;;23.40;99.90;;;;;;5042999;28;20020;-76
2023/08/25 07:47:16;;;;;;;0.00;0.00;;;22.20;99.90;;;;;;5043155;28;20097;-77
2023/08/25 07:49:43;;;;;;;0.30;0.30;;;23.10;99.90;;;;;;5043539;28;20132;-77
2023/08/25 07:52:09;;;;;;;0.00;0.00;;;23.90;99.90;;;;;;5042821;28;20017;-77
2023/08/25 07:54:35;;;;;;;1.10;1.00;;;23.90;99.90;;;;;;5060475;28;20590;-77
2023/08/25 07:57:01;;;;;;;0.03;0.03;;;24.20;99.90;;;;;;5040682;28;20048;-78
2023/08/25 07:59:27;;;;;;;0.38;0.38;;;24.10;99.90;;;;;;5058607;28;20726;-77
2023/08/25 08:01:52;;;;;;;0.35;0.35;;;24.20;99.90;;;;;;5058597;28;20025;-76
2023/08/25 08:04:18;;;;;;;0.32;0.32;;;24.20;99.90;;;;;;5059394;28;20355;-77
2023/08/25 08:06:44;;;;;;;0.00;0.00;;;24.20;99.90;;;;;;5058587;28;20024;-78
2023/08/25 08:09:10;;;;;;;0.17;0.17;;;24.10;99.90;;;;;;5061016;28;20488;-78
2023/08/25 08:11:37;;;;;;;0.57;0.57;;;24.10;99.90;;;;;;5060713;28;20490;-79
2023/08/25 08:14:03;;;;;;;0.30;0.28;;;24.20;99.90;;;;;;5058933;28;20659;-76
2023/08/25 08:16:30;;;;;;;0.10;0.10;;;24.20;99.90;;;;;;5024300;28;20095;-76
2023/08/25 08:18:55;;;;;;;1.45;1.17;;;24.20;99.90;;;;;;5043246;28;20033;-78
2023/08/25 08:21:24;;;;;;;0.13;0.13;;;24.30;99.90;;;;;;5059834;28;20031;-81
2023/08/25 08:23:50;;;;;;;0.20;0.20;;;24.40;99.90;;;;;;5060092;28;20044;-76
2023/08/25 08:26:16;;;;;;;0.40;0.40;;;24.50;99.90;;;;;;5057765;28;20052;-76
2023/08/25 08:28:41;;;;;;;1.45;1.35;;;24.30;99.90;;;;;;5057991;28;20016;-82
2023/08/25 08:31:07;;;;;;;0.40;0.40;;;24.50;99.90;;;;;;5060196;28;20017;-77
2023/08/25 08:33:34;;;;;;;0.22;0.20;;;24.60;99.90;;;;;;5061318;28;20674;-77
2023/08/25 08:36:00;;;;;;;0.47;0.47;;;24.80;99.90;;;;;;5060191;28;20054;-77
2023/08/25 08:38:26;;;;;;;0.40;0.30;;;24.90;99.90;;;;;;5040145;28;20044;-76
2023/08/25 08:40:59;;;;;;;0.20;0.20;;;25.00;99.90;;;;;;5042740;28;20100;-76
2023/08/25 08:43:26;;;;;;;11.95;4.65;;;25.30;99.90;;;;;;5059563;28;20497;-77
2023/08/25 08:45:53;;;;;;;0.75;0.57;;;25.30;99.90;;;;;;5058228;28;20021;-76
2023/08/25 08:48:20;;;;;;;0.03;0.03;;;28.30;99.90;;;;;;5058826;28;20662;-84
2023/08/25 08:50:48;;;;;;;2.30;1.95;;;25.60;99.90;;;;;;5061571;28;20705;-79
2023/08/25 08:53:15;;;;;;;3.17;1.15;;;25.80;99.90;;;;;;5042061;28;20601;-77
2023/08/25 08:55:42;;;;;;;0.35;0.20;;;26.10;99.90;;;;;;5058928;28;20013;-78
2023/08/25 08:58:08;;;;;;;0.85;0.85;;;26.30;99.90;;;;;;5059496;28;20040;-76
2023/08/25 09:00:35;;;;;;;0.32;0.32;;;26.40;99.90;;;;;;5061782;28;20016;-80
2023/08/25 09:03:14;;;;;;;9.57;1.27;;;26.60;99.90;;;;;;5043088;28;20528;-76
2023/08/25 09:05:42;;;;;;;0.65;0.65;;;26.90;99.90;;;;;;5041794;28;20024;-83
2023/08/25 09:08:12;;;;;;;0.90;0.75;;;26.90;99.90;;;;;;5061344;28;20020;-76
2023/08/25 09:10:38;;;;;;;0.75;0.75;;;27.10;99.90;;;;;;5060830;28;20579;-77
2023/08/25 09:13:05;;;;;;;0.10;0.10;;;27.20;99.90;;;;;;5060810;28;20074;-76
2023/08/25 09:15:32;;;;;;;3.72;3.50;;;27.40;99.90;;;;;;5041849;28;20036;-77
2023/08/25 09:18:08;;;;;;;0.00;0.00;;;28.00;99.90;;;;;;5058095;28;20313;-77
2023/08/25 09:20:40;;;;;;;0.10;0.10;;;27.50;99.90;;;;;;5057660;28;20023;-78
2023/08/25 09:23:12;;;;;;;1.60;1.13;;;27.40;99.90;;;;;;5060712;28;20040;-77
2023/08/25 09:25:47;;;;;;;1.15;1.05;;;27.60;99.90;;;;;;5043141;28;20119;-78
2023/08/25 09:28:13;;;;;;;0.05;0.05;;;27.80;99.90;;;;;;5040364;28;20028;-77
2023/08/25 09:30:45;;;;;;;0.45;0.45;;;27.80;99.90;;;;;;5058924;28;20031;-78
2023/08/25 09:33:14;;;;;;;7.95;2.05;;;27.90;99.90;;;;;;5042459;28;20040;-82
2023/08/25 09:35:41;;;;;;;0.35;0.35;;;27.90;99.90;;;;;;5063477;28;20024;-77
2023/08/25 09:38:19;;;;;;;1.00;0.90;;;28.40;99.90;;;;;;5046815;28;20054;-78
2023/08/25 09:40:46;;;;;;;0.50;0.50;;;28.20;99.90;;;;;;5052645;28;20176;-81
2023/08/25 09:43:12;;;;;;;1.80;1.65;;;28.30;99.90;;;;;;5079250;28;20028;-77
2023/08/25 09:45:39;;;;;;;1.00;1.00;;;28.30;99.90;;;;;;5062228;28;20027;-79
2023/08/25 09:48:13;;;;;;;1.10;0.52;;;28.50;99.90;;;;;;5081348;28;20074;-83
2023/08/25 09:50:51;;;;;;;0.70;0.40;;;28.60;99.90;;;;;;5081015;28;20025;-80
2023/08/25 09:53:25;;;;;;;1.05;0.95;;;28.70;99.90;;;;;;5080749;28;20316;-79
2023/08/25 09:56:07;;;;;;;0.20;0.20;;;28.80;99.90;;;;;;5080601;28;20047;-79
2023/08/25 09:58:42;;;;;;;1.58;1.02;;;29.50;99.90;;;;;;5078740;28;20537;-79
2023/08/25 10:01:11;;;;;;;0.68;0.68;;;29.10;99.90;;;;;;5078824;28;20024;-79
2023/08/25 10:03:40;;;;;;;0.47;0.47;;;29.30;99.90;;;;;;5079036;28;20028;-77
2023/08/25 10:06:07;;;;;;;0.20;0.20;;;29.30;99.90;;;;;;5080682;28;20216;-78
2023/08/25 10:08:33;;;;;;;1.13;1.02;;;27.90;99.90;;;;;;5062102;28;20025;-79
2023/08/25 10:10:59;;;;;;;0.90;0.75;;;29.50;99.90;;;;;;5082146;28;20738;-76
2023/08/25 10:13:29;;;;;;;0.10;0.10;;;29.60;99.90;;;;;;5082266;28;20024;-80
2023/08/25 10:16:03;;;;;;;1.15;1.05;;;29.70;99.90;;;;;;5065327;28;20055;-76
2023/08/25 10:18:35;;;;;;;2.03;1.00;;;29.60;99.90;;;;;;5080698;28;20036;-76
2023/08/25 10:21:02;;;;;;;;;;;29.60;99.90;;;;;;5080003;28;20032;-77
2023/08/25 10:23:30;;;;;;;0.00;0.00;;;29.60;99.90;;;;;;5082656;28;20440;-76
2023/08/25 10:25:57;;;;;;;0.10;0.10;;;29.80;99.90;;;;;;5081712;28;20069;-77
2023/08/25 10:28:23;;;;;;;0.08;0.08;;;30.00;99.90;;;;;;5062834;28;20229;-77
2023/08/25 10:30:50;;;;;;;0.38;0.38;;;29.80;99.90;;;;;;5080832;28;20717;-78
2023/08/25 10:33:16;;;;;;;1.13;1.02;;;28.20;99.60;;;;;;5082651;28;20013;-79
2023/08/25 10:35:43;;;;;;;0.08;0.08;;;30.10;99.90;;;;;;5083039;28;20031;-78
2023/08/25 10:38:19;;;;;;;1.67;0.85;;;30.30;99.70;;;;;;5081892;28;20074;-76
2023/08/25 10:40:51;;;;;;;0.20;0.20;;;30.40;99.90;;;;;;5083094;28;20027;-76
2023/08/25 10:43:31;;;;;;;0.35;0.35;;;30.10;99.70;;;;;;5084160;28;20365;-77
2023/08/25 10:46:00;;;;;;;0.20;0.20;;;31.30;99.90;;;;;;5064836;28;20119;-77
2023/08/25 10:48:28;;;;;;;0.63;0.63;;;30.80;99.00;;;;;;5065060;28;20112;-77
2023/08/25 10:51:18;;;;;;;0.60;0.40;;;31.00;99.90;;;;;;5080986;28;20012;-76
2023/08/25 10:53:54;;;;;;;0.35;0.35;;;30.60;99.40;;;;;;4998356;28;20034;-77
2023/08/25 10:56:21;;;;;;;0.63;0.63;;;31.30;98.70;;;;;;4999410;28;20029;-77
2023/08/25 10:59:09;;;;;;;0.90;0.52;;;31.30;98.70;;;;;;4999892;28;20053;-77
2023/08/25 11:01:38;;;;;;;0.63;0.63;;;31.90;98.40;;;;;;4984069;28;20030;-78
2023/08/25 11:04:08;;;;;;;1.95;0.77;;;32.00;97.80;;;;;;4982098;28;20037;-77
2023/08/25 11:06:45;;;;;;;1.20;1.10;;;29.50;97.10;;;;;;4999806;28;20018;-79
2023/08/25 11:09:33;;;;;;;1.27;0.68;;;32.20;97.30;;;;;;4986009;28;20026;-80
2023/08/25 11:12:04;;;;;;;1.88;1.17;;;32.00;97.10;;;;;;4984536;28;20791;-79
2023/08/25 11:14:34;;;;;;;0.45;0.45;;;33.60;98.00;;;;;;4982724;28;20017;-79
2023/08/25 11:17:08;;;;;;;3.97;1.33;;;32.90;97.30;;;;;;4999971;28;20030;-84
2023/08/25 11:19:42;;;;;;;0.90;0.65;;;32.30;96.40;;;;;;4984065;28;20037;-80
2023/08/25 11:22:10;;;;;;;0.73;0.40;;;32.80;96.40;;;;;;4982606;28;20076;-79
2023/08/25 11:24:36;;;;;;;0.60;0.60;;;32.90;96.20;;;;;;5002012;28;20278;-83
2023/08/25 11:27:06;;;;;;;3.13;2.22;;;32.90;95.50;;;;;;4999861;28;20101;-83
2023/08/25 11:29:33;;;;;;;0.75;0.75;;;32.90;95.50;;;;;;4999586;28;20651;-78
2023/08/25 11:32:00;;;;;;;3.20;0.90;;;32.70;94.60;;;;;;5040653;28;20036;-82
2023/08/25 11:34:31;;;;;;;0.52;0.35;;;32.80;94.80;;;;;;5040826;28;20738;-79
2023/08/25 11:36:59;;;;;;;0.38;0.38;;;33.20;94.30;;;;;;5040691;28;20021;-86
2023/08/25 11:39:27;;;;;;;1.02;0.73;;;33.20;94.00;;;;;;5041055;28;20096;-81
2023/08/25 11:41:57;;;;;;;0.73;0.45;;;33.50;93.70;;;;;;5041421;28;20583;-78
2023/08/25 11:44:24;;;;;;;1.60;1.13;;;33.70;93.50;;;;;;5040304;28;20078;-78
2023/08/25 11:46:54;;;;;;;0.65;0.20;;;33.70;92.80;;;;;;5040871;28;20028;-82
2023/08/25 11:49:20;;;;;;;1.45;1.17;;;33.80;92.90;;;;;;5039944;28;20016;-83
2023/08/25 11:51:54;;;;;;;0.73;0.57;;;34.00;92.10;;;;;;5041047;28;20608;-78
2023/08/25 11:54:20;;;;;;;0.85;0.57;;;34.10;91.70;;;;;;5040409;28;20271;-78
2023/08/25 11:56:51;;;;;;;0.85;0.43;;;34.30;91.50;;;;;;5042915;28;20510;-87
2023/08/25 11:59:29;;;;;;;0.60;0.50;;;34.50;90.30;;;;;;5064093;28;20063;-80
2023/08/25 12:02:01;;;;;;;2.58;2.38;;;34.90;90.20;;;;;;5062002;28;20414;-79
2023/08/25 12:04:30;;;;;;;0.85;0.60;;;35.00;87.50;;;;;;5061532;28;20198;-80
2023/08/25 12:07:02;;;;;;;0.90;0.50;;;35.50;84.00;;;;;;5060222;28;20017;-82
2023/08/25 12:09:28;;;;;;;1.27;0.95;;;35.50;86.00;;;;;;5060546;28;20047;-78
2023/08/25 12:11:56;;;;;;;2.45;1.42;;;35.70;85.00;;;;;;5056948;22;20552;-79
2023/08/25 12:14:33;;;;;;;2.10;0.77;;;36.10;84.70;;;;;;5004943;28;20067;-80
2023/08/25 12:16:59;;;;;;;0.68;0.40;;;35.90;83.70;;;;;;5023843;28;20028;-79
2023/08/25 12:19:26;;;;;;;4.57;1.63;;;35.80;84.00;;;;;;5005322;28;20025;-78
2023/08/25 12:22:06;;;;;;;0.10;0.10;;;35.90;83.40;;;;;;5005661;28;20033;-82
2023/08/25 12:24:33;;;;;;;0.85;0.82;;;34.80;80.90;;;;;;5023659;28;20026;-78
2023/08/25 12:27:00;;;;;;;0.88;0.55;;;36.00;81.60;;;;;;4988634;28;20060;-78
2023/08/25 12:29:31;;;;;;;2.85;2.17;;;36.00;80.80;;;;;;5003572;28;20052;-78
2023/08/25 12:31:57;;;;;;;0.40;0.40;;;35.90;81.40;;;;;;5003000;28;20083;-79
2023/08/25 12:34:30;;;;;;;0.22;0.22;;;36.30;82.30;;;;;;5020618;28;20558;-78
2023/08/25 12:36:57;;;;;;;1.13;0.65;;;36.80;81.20;;;;;;5021071;28;20040;-78
2023/08/25 12:39:23;;;;;;;2.50;0.77;;;37.10;79.50;;;;;;5020973;28;20034;-82
2023/08/25 12:41:49;;;;;;;0.75;0.57;;;37.40;79.60;;;;;;5022044;28;20306;-78
2023/08/25 12:44:15;;;;;;;0.40;0.30;;;37.20;78.40;;;;;;5022120;28;20287;-77
2023/08/25 12:46:49;;;;;;;1.17;0.85;;;37.10;79.10;;;;;;5002757;28;20026;-78
2023/08/25 12:49:16;;;;;;;2.55;1.55;;;37.10;78.60;;;;;;5002804;28;20024;-78
2023/08/25 12:51:47;;;;;;;1.98;1.40;;;37.10;77.60;;;;;;5020557;28;20026;-79
2023/08/25 12:54:18;;;;;;;1.60;0.53;;;37.30;77.40;;;;;;5021920;28;20014;-78
2023/08/25 12:56:51;;;;;;;2.20;1.13;;;37.30;76.70;;;;;;5022558;28;20086;-78